EW9249 Weather Reports


Display with metric or nautical units.
time (UTC)temp
F
wind
direction
speed
MPH
gust
MPH
rain 1hr
in
rain 24hr
in
rain mn
in
humidity
%
barometer
mb
20190526151054 69 159 1.0 4.0 0.00 0.36 0.44 98 1017.5
20190526150059 68 146 0.0 2.0 0.00 0.36 0.44 97 1017.5
20190526145054 68 148 0.0 0.0 0.00 0.36 0.44 98 1017.6
20190526144054 67 148 0.0 2.0 0.00 0.36 0.44 98 1017.7
20190526143055 67 63 0.0 2.0 0.00 0.36 0.44 98 1017.5
20190526142056 66 63 0.0 1.0 0.02 0.36 0.44 97 1017.6
20190526141056 66 70 0.0 2.0 0.04 0.36 0.44 97 1017.6
20190526140054 66 24 1.0 5.0 0.04 0.36 0.44 98 1017.7
20190526135054 65 87 0.0 3.0 0.04 0.36 0.44 98 1017.4
20190526134057 64 60 1.0 2.0 0.04 0.36 0.44 98 1017.7
20190526133055 64 76 0.0 5.0 0.04 0.36 0.44 97 1017.7
20190526132055 64 75 0.0 0.0 0.02 0.34 0.42 97 1018.4
20190526131056 64 75 0.0 0.0 0.00 0.32 0.40 97 1018.9
20190526130055 64 75 0.0 1.0 0.01 0.32 0.40 97 1018.1
20190526125054 64 75 0.0 1.0 0.07 0.32 0.40 98 1017.8
20190526124056 64 76 0.0 1.0 0.19 0.32 0.40 97 1017.7
20190526123056 64 76 0.0 4.0 0.32 0.32 0.40 97 1017.7
20190526122053 64 77 1.0 3.0 0.32 0.32 0.40 97 1017.6
20190526121052 64 277 1.0 7.0 0.32 0.32 0.40 97 1017.7
20190526120053 64 293 2.0 6.0 0.31 0.31 0.39 97 1017.7
20190526115052 64 13 2.0 11.0 0.25 0.25 0.33 97 1018.4
20190526114055 65 277 2.0 12.0 0.13 0.13 0.22 97 1019.0
20190526113056 66 150 3.0 4.0 0.00 0.00 0.08 97 1018.7
20190526112437 67 301 0.0 2.0 0.00 0.08 0.00 98 1018.1
20190526111437 67 286 0.0 2.0 0.00 0.08 0.00 98 1016.8
20190526110437 67 213 0.0 1.0 0.00 0.08 0.00 98 1016.8
20190526105437 66 214 0.0 0.0 0.00 0.08 0.00 98 1017.0
20190526104437 66 223 0.0 0.0 0.00 0.08 0.00 98 1016.7
20190526103437 66 223 0.0 0.0 0.00 0.08 0.00 98 1016.4
20190526102436 65 225 0.0 0.0 0.00 0.08 0.00 98 1016.2
20190526101436 65 215 0.0 1.0 0.00 0.08 0.00 98 1015.8
20190526100437 65 215 0.0 4.0 0.00 0.08 0.00 98 1015.9
20190526095436 65 202 0.0 2.0 0.00 0.08 0.00 98 1015.9
20190526094437 65 209 0.0 5.0 0.00 0.08 0.00 98 1015.7
20190526093437 65 185 0.0 2.0 0.00 0.08 0.00 98 1015.6
20190526092436 64 185 0.0 2.0 0.00 0.08 0.00 98 1015.5
20190526091437 64 184 0.0 1.0 0.00 0.08 0.00 98 1015.7
20190526090436 64 184 0.0 0.0 0.00 0.08 0.00 98 1015.9
20190526085437 64 184 0.0 1.0 0.00 0.08 0.00 97 1015.8
20190526084436 64 184 0.0 0.0 0.00 0.08 0.00 97 1015.6
20190526083437 64 184 0.0 0.0 0.00 0.08 0.00 97 1015.4
20190526082436 64 184 0.0 0.0 0.00 0.08 0.00 97 1015.4
20190526081436 64 184 0.0 0.0 0.00 0.08 0.00 97 1015.5
20190526080437 64 184 0.0 0.0 0.00 0.08 0.00 97 1015.6
20190526075437 64 184 0.0 0.0 0.00 0.08 0.00 97 1015.6
20190526074438 64 184 0.0 0.0 0.00 0.08 0.00 97 1015.7
20190526073436 64 184 0.0 0.0 0.00 0.08 0.00 97 1015.9
20190526072438 64 184 0.0 0.0 0.00 0.08 0.00 97 1016.1
20190526071434 65 184 0.0 0.0 0.00 0.08 0.00 97 1016.2
20190526070434 65 184 0.0 1.0 0.00 0.08 0.00 97 1016.3
20190526065432 65 184 0.0 1.0 0.00 0.08 0.00 97 1016.4
20190526064432 65 184 0.0 1.0 0.00 0.08 0.00 97 1016.4
20190526063433 65 182 0.0 0.0 0.00 0.08 0.00 97 1016.4
20190526062432 65 182 0.0 0.0 0.00 0.08 0.00 97 1016.4
20190526061432 65 182 0.0 0.0 0.00 0.08 0.00 97 1016.3
20190526060432 65 182 0.0 2.0 0.00 0.08 0.00 97 1016.3
20190526055432 65 182 0.0 0.0 0.00 0.08 0.00 97 1016.4
20190526054433 65 182 0.0 1.0 0.00 0.08 0.00 97 1016.5
20190526053432 65 182 0.0 0.0 0.00 0.08 0.00 97 1016.7
20190526052434 65 182 0.0 0.0 0.00 0.08 0.00 97 1016.6
20190526051433 65 182 0.0 0.0 0.00 0.08 0.00 96 1016.6
20190526050432 65 182 0.0 0.0 0.00 0.08 0.00 96 1016.7
20190526045432 65 182 0.0 0.0 0.00 0.08 0.00 96 1016.8
20190526044432 65 182 0.0 0.0 0.00 0.08 0.00 96 1016.7
20190526043432 65 182 0.0 0.0 0.00 0.08 0.00 96 1016.6
20190526042432 65 182 0.0 0.0 0.00 0.08 0.00 96 1016.7
20190526041433 65 182 0.0 0.0 0.00 0.08 0.00 96 1016.7
20190526040432 65 182 0.0 0.0 0.00 0.08 0.00 96 1016.7
20190526035434 65 182 0.0 0.0 0.00 0.08 0.08 96 1016.8
20190526034433 65 182 0.0 0.0 0.00 0.08 0.08 96 1016.8
20190526033434 66 182 0.0 0.0 0.00 0.08 0.08 95 1016.8
20190526032430 66 182 0.0 0.0 0.00 0.08 0.08 95 1016.7
20190526031432 66 182 0.0 0.0 0.00 0.08 0.08 95 1016.8
20190526030432 66 182 0.0 0.0 0.00 0.08 0.08 95 1016.8
20190526025432 66 182 0.0 0.0 0.00 0.08 0.08 94 1016.8
20190526024432 66 182 0.0 0.0 0.00 0.08 0.08 94 1016.7
20190526023430 67 182 0.0 0.0 0.00 0.08 0.08 94 1016.7
20190526022430 67 182 0.0 0.0 0.00 0.08 0.08 93 1016.7
20190526021429 67 182 0.0 1.0 0.00 0.08 0.08 93 1016.7
20190526020430 68 182 0.0 0.0 0.00 0.08 0.08 92 1016.7
20190526015428 68 182 0.0 0.0 0.00 0.08 0.08 91 1016.7
20190526014427 69 182 0.0 1.0 0.00 0.08 0.08 91 1016.5
20190526013428 69 182 0.0 2.0 0.00 0.08 0.08 90 1016.5
20190526012426 69 182 0.0 1.0 0.00 0.08 0.08 89 1016.4
20190526011424 70 182 0.0 2.0 0.00 0.08 0.08 89 1016.3
20190526010423 70 178 0.0 2.0 0.00 0.08 0.08 88 1016.3
20190526005421 70 175 0.0 4.0 0.00 0.08 0.08 88 1016.4
20190526004419 71 175 0.0 2.0 0.00 0.08 0.08 88 1016.4
20190526003418 71 196 0.0 2.0 0.00 0.08 0.08 87 1016.5
20190526002415 71 193 1.0 2.0 0.00 0.08 0.08 87 1016.4
20190526001416 71 194 1.0 6.0 0.00 0.08 0.08 88 1016.5
20190526000413 71 210 1.0 2.0 0.00 0.08 0.08 88 1016.4
20190525235412 71 218 1.0 6.0 0.00 0.08 0.08 88 1016.4
20190525234412 71 192 1.0 5.0 0.00 0.08 0.08 89 1016.3
20190525233413 71 204 2.0 7.0 0.00 0.08 0.08 90 1016.3
20190525232414 70 232 1.0 5.0 0.00 0.08 0.08 91 1016.3
20190525231411 70 250 1.0 4.0 0.00 0.08 0.08 92 1016.3
20190525230411 70 200 0.0 5.0 0.00 0.08 0.08 93 1016.3
20190525225410 70 212 1.0 5.0 0.00 0.08 0.08 94 1016.4
20190525224410 69 225 1.0 4.0 0.00 0.08 0.08 94 1016.6
20190525223409 69 204 1.0 5.0 0.00 0.08 0.08 94 1016.7
20190525222409 69 272 0.0 1.0 0.02 0.08 0.08 95 1016.8
20190525221408 68 286 0.0 1.0 0.08 0.08 0.08 94 1016.5
20190525220409 69 286 0.0 1.0 0.08 0.08 0.08 93 1016.4
20190525215406 69 286 0.0 5.0 0.08 0.08 0.08 93 1016.3
20190525214407 69 320 2.0 7.0 0.08 0.08 0.08 92 1016.3
20190525213405 69 19 3.0 10.0 0.08 0.08 0.08 91 1016.2
20190525212406 70 288 3.0 14.0 0.06 0.06 0.07 87 1016.7
20190525211404 73 36 4.0 14.0 0.00 0.00 0.00 78 1016.7
20190525210402 77 238 5.0 13.0 0.00 0.00 0.00 68 1016.5
20190525205400 83 266 3.0 21.0 0.00 0.00 0.00 56 1015.9
20190525204402 84 226 3.0 8.0 0.00 0.00 0.00 52 1015.0
20190525203401 85 223 2.0 5.0 0.00 0.00 0.00 53 1015.0
20190525202402 86 209 2.0 9.0 0.00 0.00 0.00 52 1014.9
20190525201402 87 212 3.0 10.0 0.00 0.00 0.00 50 1014.8
20190525200401 87 226 3.0 10.0 0.00 0.00 0.00 49 1014.7
20190525195358 86 216 4.0 15.0 0.00 0.00 0.00 50 1014.6
20190525194400 87 223 3.0 9.0 0.00 0.00 0.00 50 1014.5
20190525193356 87 223 3.0 9.0 0.00 0.00 0.00 55 1014.5
20190525192355 87 139 3.0 12.0 0.00 0.00 0.00 53 1014.3
20190525191354 87 205 2.0 9.0 0.00 0.00 0.00 52 1014.2
20190525190357 88 236 3.0 10.0 0.00 0.00 0.00 54 1014.2
20190525185353 87 188 4.0 15.0 0.00 0.00 0.00 51 1014.3
20190525184352 86 197 3.0 9.0 0.00 0.00 0.00 53 1014.6
20190525183353 87 308 3.0 14.0 0.00 0.00 0.00 53 1014.6
20190525182353 86 205 4.0 15.0 0.00 0.00 0.00 55 1014.8
20190525181353 87 177 3.0 12.0 0.00 0.00 0.00 57 1015.0
20190525180353 86 196 2.0 5.0 0.00 0.00 0.00 58 1014.9
20190525175350 86 176 2.0 8.0 0.00 0.00 0.00 56 1015.1
20190525174351 87 280 2.0 10.0 0.00 0.00 0.00 57 1015.1
20190525173348 87 206 3.0 12.0 0.00 0.00 0.00 57 1015.2
20190525172349 87 163 3.0 10.0 0.00 0.00 0.00 55 1015.3
20190525171348 87 146 2.0 7.0 0.00 0.00 0.00 58 1015.4
20190525170350 86 137 3.0 11.0 0.00 0.00 0.00 63 1015.4
20190525165349 87 235 2.0 7.0 0.00 0.00 0.00 59 1015.5
20190525164349 86 335 2.0 6.0 0.00 0.00 0.00 63 1015.6
20190525163349 85 248 2.0 8.0 0.00 0.00 0.00 63 1015.8
20190525162350 85 205 2.0 12.0 0.00 0.00 0.00 65 1015.9
20190525161349 85 59 2.0 7.0 0.00 0.00 0.00 64 1016.0
20190525160349 84 159 2.0 7.0 0.00 0.00 0.00 66 1016.2
20190525155348 84 173 2.0 7.0 0.00 0.00 0.00 68 1016.3
20190525154350 83 13 3.0 9.0 0.00 0.00 0.00 67 1016.5
20190525153349 82 180 2.0 10.0 0.00 0.00 0.00 68 1016.7
20190525152348 82 120 2.0 8.0 0.00 0.00 0.00 73 1016.7